Time;durP1;ratioP1;P1;durP2;ratioP2;P2;SDS_P1;SDS_P2;PMS_P1;PMS_P2;Temp;Humidity;BMP_temperature;BMP_pressure;BME280_temperature;BME280_humidity;BME280_pressure;Samples;Min_cycle;Max_cycle;Signal;HPM_P1;HPM_P2
2022/10/02 00:00:33;;;;;;;5.57;3.00;;;16.60;46.80;;;;;;21008332;28;20090;-58
2022/10/02 00:10:47;;;;;;;5.22;2.10;;;16.50;47.10;;;;;;21007553;28;20481;-58
2022/10/02 00:21:18;;;;;;;4.60;2.40;;;16.40;47.30;;;;;;21007643;28;20044;-58
2022/10/02 00:31:26;;;;;;;6.45;2.35;;;16.40;47.10;;;;;;21005866;28;20049;-58
2022/10/02 00:41:47;;;;;;;6.70;2.35;;;16.30;47.50;;;;;;21004671;28;20049;-56
2022/10/02 00:52:28;;;;;;;5.97;2.78;;;16.20;47.70;;;;;;20991185;28;20052;-58
2022/10/02 01:02:35;;;;;;;4.32;2.03;;;16.30;47.40;;;;;;20651051;28;20054;-60
2022/10/02 01:12:38;;;;;;;4.10;2.42;;;16.10;48.00;;;;;;20666382;28;20414;-59
2022/10/02 01:22:56;;;;;;;4.53;2.25;;;15.90;48.70;;;;;;20665578;28;20050;-59
2022/10/02 01:33:01;;;;;;;5.93;2.22;;;15.90;48.90;;;;;;20749519;28;20057;-59
2022/10/02 01:43:24;;;;;;;4.57;2.10;;;15.70;49.60;;;;;;21000773;28;20088;-59
2022/10/02 01:54:19;;;;;;;7.88;2.20;;;15.60;50.20;;;;;;20999922;28;20045;-60
2022/10/02 02:04:31;;;;;;;3.97;2.13;;;15.40;50.00;;;;;;20999100;28;20481;-56
2022/10/02 02:14:42;;;;;;;3.83;2.75;;;15.30;50.50;;;;;;20998333;28;20408;-56
2022/10/02 02:25:02;;;;;;;4.53;2.60;;;15.40;50.30;;;;;;20997320;28;20049;-56
2022/10/02 02:35:11;;;;;;;4.70;2.20;;;15.30;50.50;;;;;;20997756;28;20071;-57
2022/10/02 02:45:17;;;;;;;4.25;2.30;;;15.30;51.00;;;;;;20996533;28;20090;-58
2022/10/02 02:55:44;;;;;;;6.35;2.67;;;15.20;51.50;;;;;;20978965;28;20603;-57
2022/10/02 03:06:09;;;;;;;5.45;2.53;;;15.20;51.30;;;;;;20994862;28;20060;-59
2022/10/02 03:16:53;;;;;;;5.75;2.60;;;15.20;51.50;;;;;;20995211;28;20182;-57
2022/10/02 03:27:06;;;;;;;5.93;2.90;;;15.40;50.90;;;;;;20994648;28;20085;-57
2022/10/02 03:37:08;;;;;;;5.72;3.00;;;15.50;51.30;;;;;;20993705;28;20045;-58
2022/10/02 03:47:10;;;;;;;4.07;2.53;;;15.50;51.10;;;;;;20993668;28;20053;-59
2022/10/02 03:57:18;;;;;;;5.93;3.15;;;15.30;51.50;;;;;;20993039;28;20044;-57
2022/10/02 04:07:27;;;;;;;6.78;3.13;;;15.20;51.70;;;;;;20993085;28;20103;-57
2022/10/02 04:17:42;;;;;;;6.22;2.80;;;15.20;51.40;;;;;;20993374;28;20076;-59
2022/10/02 04:28:01;;;;;;;5.72;2.28;;;15.20;51.60;;;;;;21006653;28;20048;-57
2022/10/02 04:38:08;;;;;;;5.00;2.80;;;15.20;51.90;;;;;;21006167;28;20537;-59
2022/10/02 04:48:47;;;;;;;4.68;2.15;;;14.90;52.20;;;;;;21005210;28;20057;-60
2022/10/02 04:59:27;;;;;;;4.95;2.00;;;14.70;52.20;;;;;;21004513;28;20072;-60
2022/10/02 05:09:52;;;;;;;4.32;2.05;;;14.60;52.50;;;;;;20666616;28;20474;-60
2022/10/02 05:20:12;;;;;;;5.25;2.00;;;14.50;52.80;;;;;;20347889;29;20505;-60
2022/10/02 05:30:16;;;;;;;3.28;1.92;;;14.50;53.00;;;;;;20346324;29;20157;-59
2022/10/02 05:40:23;;;;;;;3.78;1.65;;;14.50;53.20;;;;;;20474720;28;20051;-59
2022/10/02 05:50:32;;;;;;;3.88;2.35;;;14.30;53.80;;;;;;20739541;28;20059;-59
2022/10/02 06:00:44;;;;;;;4.82;2.13;;;14.10;54.30;;;;;;20999013;28;20135;-59
2022/10/02 06:10:57;;;;;;;3.75;1.83;;;14.00;55.00;;;;;;20998289;28;20060;-59
2022/10/02 06:21:17;;;;;;;5.15;2.42;;;13.90;54.90;;;;;;20980442;28;20132;-61
2022/10/02 06:31:44;;;;;;;3.80;2.03;;;13.80;55.20;;;;;;20997425;28;20053;-62
2022/10/02 06:42:08;;;;;;;26.08;6.50;;;13.70;55.00;;;;;;20978896;28;20056;-61
2022/10/02 06:52:13;;;;;;;6.65;2.58;;;13.80;55.10;;;;;;20996639;28;20052;-64
2022/10/02 07:02:41;;;;;;;5.63;3.17;;;14.00;54.80;;;;;;20978512;28;20063;-62
2022/10/02 07:13:25;;;;;;;4.68;2.60;;;14.10;54.50;;;;;;20995137;28;20519;-60
2022/10/02 07:24:04;;;;;;;3.55;2.30;;;14.20;54.10;;;;;;20995658;28;20189;-61
2022/10/02 07:34:38;;;;;;;4.13;2.35;;;14.20;54.00;;;;;;20994914;28;20511;-60
2022/10/02 07:45:11;;;;;;;74.57;47.35;;;14.50;53.50;;;;;;20993888;28;20044;-58
2022/10/02 07:55:19;;;;;;;6.25;2.20;;;14.70;53.10;;;;;;20999765;28;20045;-58
2022/10/02 08:05:34;;;;;;;5.70;3.25;;;15.00;52.40;;;;;;21008104;28;20127;-59
2022/10/02 08:15:40;;;;;;;3.97;2.58;;;15.20;51.60;;;;;;21007195;28;20448;-59
2022/10/02 08:25:51;;;;;;;6.97;2.72;;;15.70;50.80;;;;;;21006790;28;20102;-56
2022/10/02 08:35:55;;;;;;;5.30;2.50;;;16.10;49.70;;;;;;21006063;28;20094;-57
2022/10/02 08:46:16;;;;;;;6.50;2.33;;;16.50;49.20;;;;;;20987717;28;20144;-58
2022/10/02 08:56:20;;;;;;;8.65;4.28;;;17.00;47.90;;;;;;21005144;28;20131;-58
2022/10/02 09:06:43;;;;;;;4.72;1.70;;;17.40;46.60;;;;;;21016333;28;20063;-57
2022/10/02 09:17:02;;;;;;;4.72;2.53;;;18.30;43.70;;;;;;21032683;28;20044;-63
2022/10/02 09:27:09;;;;;;;4.68;1.45;;;18.50;42.50;;;;;;21034236;28;20476;-57
2022/10/02 09:37:49;;;;;;;3.63;1.27;;;18.80;40.60;;;;;;21028663;28;20473;-63
2022/10/02 09:48:05;;;;;;;2.75;1.98;;;19.20;39.90;;;;;;20721574;28;20141;-59
2022/10/02 09:58:16;;;;;;;3.47;1.23;;;19.70;37.80;;;;;;20709408;28;20077;-59
2022/10/02 10:08:54;;;;;;;3.13;1.08;;;19.90;37.00;;;;;;20706832;28;20068;-62
2022/10/02 10:19:31;;;;;;;6.78;4.30;;;20.20;36.10;;;;;;20896986;28;20048;-66
2022/10/02 10:29:44;;;;;;;14.93;12.20;;;20.50;35.90;;;;;;21036758;28;20102;-60
2022/10/02 10:40:05;;;;;;;16.35;10.65;;;20.80;37.40;;;;;;21045995;28;20090;-60
2022/10/02 10:50:13;;;;;;;2.90;1.20;;;21.40;38.80;;;;;;20997946;28;20056;-61
2022/10/02 11:00:18;;;;;;;2.75;1.00;;;21.70;34.00;;;;;;20979274;28;20057;-60
2022/10/02 11:10:49;;;;;;;3.08;1.00;;;21.70;32.90;;;;;;20978014;28;20044;-60
2022/10/02 11:21:06;;;;;;;1.55;0.90;;;22.00;32.50;;;;;;20995306;28;20072;-59
2022/10/02 11:31:16;;;;;;;2.35;0.90;;;22.30;31.50;;;;;;21004389;28;20121;-60
2022/10/02 11:41:21;;;;;;;2.92;0.90;;;22.60;30.90;;;;;;21009770;28;20093;-59
2022/10/02 11:51:50;;;;;;;2.20;1.55;;;22.90;29.30;;;;;;21009735;28;20056;-60
2022/10/02 12:02:04;;;;;;;0.80;0.50;;;23.10;27.40;;;;;;21008746;28;20048;-59
2022/10/02 12:12:38;;;;;;;1.90;0.70;;;23.30;27.30;;;;;;21007864;28;20131;-60
2022/10/02 12:33:46;;;;;;;1.15;0.70;;;23.80;26.70;;;;;;21006679;28;20044;-61
2022/10/02 12:44:00;;;;;;;3.03;1.38;;;24.00;24.40;;;;;;21004801;28;20205;-59
2022/10/02 12:54:06;;;;;;;1.33;0.80;;;24.30;24.80;;;;;;21005365;28;20401;-61
2022/10/02 13:04:26;;;;;;;2.15;0.60;;;24.50;25.10;;;;;;21004041;28;20055;-59
2022/10/02 13:14:53;;;;;;;2.78;0.95;;;24.60;23.60;;;;;;21003340;28;20048;-58
2022/10/02 13:25:36;;;;;;;1.80;0.90;;;24.80;23.80;;;;;;21001588;28;20088;-58
2022/10/02 13:35:51;;;;;;;2.88;0.85;;;25.00;24.20;;;;;;20743991;28;20069;-59
2022/10/02 13:46:04;;;;;;;1.77;0.80;;;25.20;23.10;;;;;;20743563;28;20046;-59
2022/10/02 13:56:20;;;;;;;2.42;1.40;;;25.40;22.70;;;;;;20743127;28;20050;-60
2022/10/02 14:06:35;;;;;;;1.00;0.73;;;25.60;23.20;;;;;;20807524;28;20477;-60
2022/10/02 14:17:11;;;;;;;2.50;0.75;;;25.70;22.30;;;;;;20996589;28;20405;-61
2022/10/02 14:27:42;;;;;;;1.60;1.00;;;25.70;21.70;;;;;;20980658;28;20054;-60
2022/10/02 14:38:02;;;;;;;3.45;1.08;;;25.70;21.80;;;;;;20659725;28;20121;-60
2022/10/02 14:48:12;;;;;;;2.30;0.93;;;25.80;21.50;;;;;;20659275;28;20128;-61
2022/10/02 14:58:39;;;;;;;4.88;1.10;;;25.80;21.00;;;;;;20657909;28;20057;-61
2022/10/02 15:09:00;;;;;;;1.10;0.70;;;25.90;21.00;;;;;;20515025;28;20584;-61
2022/10/02 15:19:21;;;;;;;3.33;1.02;;;26.00;21.00;;;;;;20736360;28;20479;-60
2022/10/02 15:29:37;;;;;;;3.00;1.60;;;25.90;20.60;;;;;;20737129;28;20060;-60
2022/10/02 15:39:53;;;;;;;5.45;1.73;;;26.00;19.60;;;;;;20805836;28;20079;-58
2022/10/02 15:50:22;;;;;;;1.85;0.95;;;26.00;20.30;;;;;;20992461;28;20528;-60
2022/10/02 16:00:28;;;;;;;2.10;0.90;;;25.90;20.00;;;;;;20992363;28;20052;-59
2022/10/02 16:10:51;;;;;;;4.72;3.45;;;25.70;19.60;;;;;;20991460;28;20049;-59
2022/10/02 16:21:35;;;;;;;2.75;1.10;;;25.70;20.10;;;;;;21004326;28;20075;-58
2022/10/02 16:31:44;;;;;;;1.35;0.75;;;25.60;19.50;;;;;;21006358;28;20099;-60
2022/10/02 16:42:09;;;;;;;2.65;1.08;;;25.40;19.40;;;;;;21003732;28;20059;-60
2022/10/02 16:52:22;;;;;;;2.10;0.95;;;25.50;19.80;;;;;;21004948;28;20052;-60
2022/10/02 17:02:42;;;;;;;1.23;0.77;;;25.40;18.80;;;;;;21002582;28;20051;-61
2022/10/02 17:13:08;;;;;;;2.55;1.50;;;25.20;19.30;;;;;;21003566;28;20206;-61
2022/10/02 17:23:32;;;;;;;1.83;1.15;;;25.10;19.80;;;;;;21001123;28;20048;-59
2022/10/02 17:34:10;;;;;;;2.20;1.40;;;24.90;20.50;;;;;;21000725;28;20060;-60
2022/10/02 17:44:12;;;;;;;4.88;2.00;;;24.80;20.80;;;;;;20999567;28;20416;-59
2022/10/02 18:05:42;;;;;;;8.63;2.63;;;24.60;21.30;;;;;;20998792;28;20056;-60
2022/10/02 18:16:02;;;;;;;8.85;3.15;;;24.20;22.50;;;;;;20661120;28;20479;-60
2022/10/02 18:26:15;;;;;;;11.30;3.65;;;23.70;23.80;;;;;;20659873;28;20154;-58
2022/10/02 18:36:39;;;;;;;3.10;2.22;;;23.40;24.40;;;;;;20658838;28;20600;-59
2022/10/02 18:47:03;;;;;;;8.82;3.20;;;23.20;24.70;;;;;;20772618;28;20086;-61
2022/10/02 18:57:07;;;;;;;6.65;3.45;;;23.00;25.30;;;;;;20995748;28;20060;-62
2022/10/02 19:07:18;;;;;;;6.60;3.75;;;22.70;25.40;;;;;;20996188;28;20049;-61
2022/10/02 19:17:25;;;;;;;7.05;4.38;;;22.60;26.70;;;;;;20994896;28;20048;-60
2022/10/02 19:27:32;;;;;;;9.27;4.82;;;22.50;27.70;;;;;;20995552;28;20052;-61
2022/10/02 19:37:40;;;;;;;5.00;3.22;;;22.20;28.50;;;;;;20994351;28;20477;-61
2022/10/02 19:47:46;;;;;;;10.60;4.70;;;22.00;28.30;;;;;;20995176;28;20109;-61
2022/10/02 19:57:50;;;;;;;6.35;2.40;;;21.70;28.80;;;;;;21009217;28;20084;-60
2022/10/02 20:08:03;;;;;;;6.63;2.85;;;21.40;29.00;;;;;;21009229;28;20051;-61
2022/10/02 20:18:06;;;;;;;3.72;2.03;;;21.20;29.20;;;;;;21007613;28;20044;-61
2022/10/02 20:28:14;;;;;;;5.18;2.53;;;21.10;29.20;;;;;;21007152;28;20231;-62
2022/10/02 20:38:40;;;;;;;4.03;1.92;;;20.90;29.10;;;;;;21006280;28;20105;-61
2022/10/02 20:49:01;;;;;;;6.63;2.22;;;20.70;28.80;;;;;;21005429;28;20148;-61
2022/10/02 20:59:35;;;;;;;3.25;2.10;;;20.50;29.00;;;;;;21003719;28;20060;-62
2022/10/02 21:10:19;;;;;;;7.03;2.10;;;20.50;29.30;;;;;;21003968;28;20110;-62
2022/10/02 21:20:58;;;;;;;5.53;2.33;;;20.40;29.60;;;;;;21003858;28;20127;-61
2022/10/02 21:31:16;;;;;;;4.45;1.90;;;20.20;29.70;;;;;;20984284;28;20048;-61
2022/10/02 21:41:39;;;;;;;4.22;2.10;;;20.10;30.50;;;;;;21002435;28;20393;-58
2022/10/02 21:52:16;;;;;;;4.70;2.53;;;19.90;30.70;;;;;;21001092;28;20480;-61
2022/10/02 22:02:48;;;;;;;8.13;2.17;;;19.70;30.90;;;;;;20999639;28;20049;-63
2022/10/02 22:13:24;;;;;;;2.83;1.70;;;19.70;31.20;;;;;;20999166;28;20048;-61
2022/10/02 22:23:40;;;;;;;6.47;2.20;;;19.50;30.90;;;;;;20983870;28;20084;-60
2022/10/02 22:33:52;;;;;;;3.85;1.52;;;19.30;32.30;;;;;;20997938;28;20048;-61
2022/10/02 22:44:12;;;;;;;3.10;1.58;;;19.10;32.20;;;;;;20996732;28;20408;-60
2022/10/02 22:54:20;;;;;;;4.03;1.52;;;19.00;32.70;;;;;;20996850;28;20071;-61
2022/10/02 23:04:31;;;;;;;4.95;1.75;;;18.90;33.10;;;;;;20996995;28;20476;-59
2022/10/02 23:14:46;;;;;;;4.95;1.73;;;18.80;33.80;;;;;;20995543;28;20051;-60
2022/10/02 23:24:59;;;;;;;4.45;1.70;;;18.70;34.00;;;;;;21000123;28;20059;-57
2022/10/02 23:35:24;;;;;;;4.40;1.90;;;18.70;34.10;;;;;;21012120;28;20048;-58
2022/10/02 23:45:38;;;;;;;4.97;1.73;;;18.50;34.40;;;;;;21010881;28;20063;-59
2022/10/02 23:56:06;;;;;;;6.13;2.10;;;18.20;34.50;;;;;;21010627;28;20071;-58
